createdAt,value
2022-11-18T00:01:04.608Z,36.33
2022-11-18T00:03:51.147Z,34.13
2022-11-18T00:06:33.360Z,35.47
2022-11-18T00:09:24.442Z,35.03
2022-11-18T00:12:22.349Z,33.40
2022-11-18T00:15:11.111Z,30.02
2022-11-18T00:17:55.819Z,30.50
2022-11-18T00:20:39.499Z,29.73
2022-11-18T00:23:27.402Z,28.40
2022-11-18T00:26:17.087Z,27.48
2022-11-18T00:28:55.449Z,26.55
2022-11-18T00:31:48.440Z,27.55
2022-11-18T00:34:33.722Z,28.77
2022-11-18T00:37:17.333Z,27.77
2022-11-18T00:40:06.007Z,26.75
2022-11-18T00:43:00.004Z,27.48
2022-11-18T00:45:39.765Z,27.92
2022-11-18T00:48:22.963Z,26.88
2022-11-18T00:51:15.031Z,28.23
2022-11-18T00:54:01.219Z,28.73
2022-11-18T00:56:54.225Z,27.45
2022-11-18T00:59:38.496Z,26.98
2022-11-18T01:02:26.212Z,26.30
2022-11-18T01:05:09.648Z,29.23
2022-11-18T01:07:56.196Z,27.50
2022-11-18T01:10:47.454Z,29.33
2022-11-18T01:13:35.377Z,33.00
2022-11-18T01:16:29.691Z,32.45
2022-11-18T01:19:14.007Z,29.25
2022-11-18T01:24:49.210Z,29.50
2022-11-18T01:27:33.423Z,32.03
2022-11-18T01:30:22.619Z,36.17
2022-11-18T01:33:10.031Z,39.10
2022-11-18T01:36:10.127Z,34.75
2022-11-18T01:38:55.267Z,41.50
2022-11-18T01:41:46.417Z,39.67
2022-11-18T01:44:53.240Z,39.33
2022-11-18T01:47:41.553Z,38.03
2022-11-18T01:50:28.559Z,37.13
2022-11-18T01:53:15.524Z,37.35
2022-11-18T01:55:57.336Z,35.70
2022-11-18T01:58:50.117Z,33.20
2022-11-18T02:01:36.612Z,36.00
2022-11-18T02:04:33.769Z,35.17
2022-11-18T02:07:09.984Z,33.25
2022-11-18T02:09:54.555Z,32.92
2022-11-18T02:12:36.490Z,34.03
2022-11-18T02:15:25.220Z,36.72
2022-11-18T02:18:32.002Z,35.97
2022-11-18T02:22:04.117Z,33.78
2022-11-18T02:25:14.597Z,35.20
2022-11-18T02:28:19.478Z,31.73
2022-11-18T02:31:22.259Z,36.97
2022-11-18T02:34:15.525Z,33.88
2022-11-18T02:37:29.166Z,24.23
2022-11-18T02:40:17.707Z,35.60
2022-11-18T02:43:23.497Z,33.95
2022-11-18T02:46:11.490Z,33.22
2022-11-18T02:48:56.038Z,34.95
2022-11-18T02:51:31.981Z,34.83
2022-11-18T02:54:20.518Z,34.00
2022-11-18T02:56:59.366Z,35.70
2022-11-18T02:59:47.128Z,35.45
2022-11-18T03:02:47.742Z,33.58
2022-11-18T03:05:52.007Z,31.63
2022-11-18T03:08:51.037Z,32.55
2022-11-18T03:12:02.404Z,31.65
2022-11-18T03:15:06.662Z,31.52
2022-11-18T03:18:13.776Z,31.85
2022-11-18T03:21:06.414Z,30.80
2022-11-18T03:23:50.870Z,29.07
2022-11-18T03:26:36.562Z,30.90
2022-11-18T03:29:18.496Z,29.15
2022-11-18T03:32:06.527Z,28.10
2022-11-18T03:35:01.348Z,27.00
2022-11-18T03:37:41.355Z,29.77
2022-11-18T03:40:44.668Z,30.08
2022-11-18T03:43:35.560Z,28.75
2022-11-18T03:46:49.838Z,28.63
2022-11-18T03:49:47.475Z,29.42
2022-11-18T03:52:48.262Z,30.05
2022-11-18T03:55:32.184Z,29.83
2022-11-18T03:58:33.921Z,27.17
2022-11-18T04:01:22.826Z,29.63
2022-11-18T04:04:12.430Z,27.70
2022-11-18T04:07:18.200Z,29.40
2022-11-18T04:10:14.853Z,25.02
2022-11-18T04:13:16.372Z,26.48
2022-11-18T04:16:10.738Z,27.98
2022-11-18T04:19:06.184Z,27.95
2022-11-18T04:21:53.063Z,27.00
2022-11-18T04:24:37.838Z,30.55
2022-11-18T04:27:19.037Z,29.10
2022-11-18T04:30:11.292Z,30.00
2022-11-18T04:32:58.587Z,29.48
2022-11-18T04:35:36.732Z,31.48
2022-11-18T04:38:23.704Z,29.00
2022-11-18T04:41:02.760Z,29.02
2022-11-18T04:43:48.942Z,29.15
2022-11-18T04:46:38.414Z,28.02
2022-11-18T04:49:25.633Z,29.33
2022-11-18T04:52:12.486Z,26.60
2022-11-18T04:54:56.409Z,28.13
2022-11-18T04:57:49.476Z,26.25
2022-11-18T05:00:25.404Z,27.05
2022-11-18T05:03:13.587Z,26.58
2022-11-18T05:05:59.364Z,27.20
2022-11-18T05:08:42.981Z,26.00
2022-11-18T05:11:41.452Z,28.85
2022-11-18T05:14:34.367Z,25.08
2022-11-18T05:17:11.819Z,24.25
2022-11-18T05:19:58.540Z,25.17
2022-11-18T05:25:26.022Z,25.98
2022-11-18T05:28:14.546Z,27.00
2022-11-18T05:31:15.868Z,26.20
2022-11-18T05:33:56.907Z,26.60
2022-11-18T05:36:40.521Z,27.67
2022-11-18T05:39:26.018Z,25.27
2022-11-18T05:42:24.703Z,25.17
2022-11-18T05:45:11.791Z,27.88
2022-11-18T05:48:08.061Z,26.60
2022-11-18T05:50:57.088Z,28.63
2022-11-18T05:53:38.582Z,28.00
2022-11-18T05:56:32.553Z,28.00
2022-11-18T05:59:10.474Z,27.23
2022-11-18T06:02:07.033Z,26.85
2022-11-18T06:04:45.370Z,26.10
2022-11-18T06:07:44.674Z,28.23
2022-11-18T06:10:42.321Z,27.08
2022-11-18T06:13:37.888Z,28.20
2022-11-18T06:16:18.805Z,29.35
2022-11-18T06:19:02.062Z,28.02
2022-11-18T06:21:37.170Z,26.10
2022-11-18T06:24:30.408Z,28.80
2022-11-18T06:27:05.956Z,28.13
2022-11-18T06:29:49.995Z,27.13
2022-11-18T06:32:44.415Z,26.30
2022-11-18T06:35:34.146Z,25.88
2022-11-18T06:38:25.592Z,27.88
2022-11-18T06:41:11.136Z,25.17
2022-11-18T06:43:58.031Z,26.95
2022-11-18T06:46:58.265Z,27.58
2022-11-18T06:49:41.405Z,28.38
2022-11-18T06:52:31.616Z,29.55
2022-11-18T06:55:15.578Z,29.20
2022-11-18T06:57:57.107Z,29.60
2022-11-18T07:00:57.436Z,26.60
2022-11-18T07:03:38.700Z,26.98
2022-11-18T07:06:40.890Z,25.38
2022-11-18T07:09:31.423Z,29.35
2022-11-18T07:12:13.212Z,29.80
2022-11-18T07:15:01.766Z,27.63
2022-11-18T07:17:51.453Z,31.45
2022-11-18T07:20:39.491Z,29.08
2022-11-18T07:23:23.151Z,29.58
2022-11-18T07:26:12.301Z,27.35
2022-11-18T07:29:02.866Z,26.00
2022-11-18T07:31:57.851Z,27.88
2022-11-18T07:34:46.070Z,29.05
2022-11-18T07:37:41.281Z,26.83
2022-11-18T07:40:22.451Z,27.90
2022-11-18T07:43:16.993Z,28.80
2022-11-18T07:46:20.911Z,28.20
2022-11-18T07:49:09.995Z,30.75
2022-11-18T07:51:51.635Z,31.83
2022-11-18T07:54:44.307Z,30.10
2022-11-18T07:57:30.123Z,30.40
2022-11-18T08:00:20.726Z,32.72
2022-11-18T08:03:11.293Z,30.27
2022-11-18T08:05:55.073Z,29.80
2022-11-18T08:08:41.296Z,31.25
2022-11-18T08:11:40.639Z,30.20
2022-11-18T08:14:26.555Z,29.60
2022-11-18T08:17:08.467Z,29.25
2022-11-18T08:19:52.906Z,27.70
2022-11-18T08:22:44.831Z,28.95
2022-11-18T08:25:28.671Z,25.98
2022-11-18T08:28:30.979Z,28.35
2022-11-18T08:31:25.497Z,28.58
2022-11-18T08:34:14.146Z,32.83
2022-11-18T08:36:54.914Z,30.20
2022-11-18T08:39:36.334Z,27.65
2022-11-18T08:42:29.909Z,26.63
2022-11-18T08:48:11.863Z,25.85
2022-11-18T08:50:55.954Z,27.48
2022-11-18T08:53:43.187Z,26.73
2022-11-18T08:56:32.811Z,28.80
2022-11-18T08:59:28.326Z,26.20
2022-11-18T09:02:25.048Z,28.25
2022-11-18T09:05:57.389Z,27.75
2022-11-18T09:09:06.318Z,29.40
2022-11-18T09:12:09.490Z,31.98
2022-11-18T09:15:19.945Z,28.90
2022-11-18T09:18:28.411Z,27.10
2022-11-18T09:21:15.753Z,29.20
2022-11-18T09:23:59.132Z,28.02
2022-11-18T09:26:40.478Z,30.77
2022-11-18T09:29:26.590Z,30.75
2022-11-18T09:32:14.973Z,31.05
2022-11-18T09:35:11.927Z,31.75
2022-11-18T09:38:09.682Z,32.25
2022-11-18T09:41:12.958Z,30.48
2022-11-18T09:44:36.185Z,28.70
2022-11-18T09:47:26.278Z,30.33
2022-11-18T09:53:57.629Z,27.75
2022-11-18T09:56:56.343Z,26.83
2022-11-18T09:59:42.063Z,27.77
2022-11-18T10:02:54.808Z,28.98
2022-11-18T10:06:05.088Z,26.48
2022-11-18T10:09:46.924Z,26.83
2022-11-18T10:13:06.086Z,28.98
2022-11-18T10:16:35.582Z,26.80
2022-11-18T10:22:00.457Z,30.00
2022-11-18T10:24:56.416Z,31.52
2022-11-18T10:27:55.576Z,29.73
2022-11-18T10:30:38.114Z,29.70
2022-11-18T10:33:43.759Z,30.48
2022-11-18T10:36:58.529Z,28.58
2022-11-18T10:42:32.495Z,25.60
2022-11-18T10:45:35.436Z,27.23
2022-11-18T10:48:23.617Z,22.60
2022-11-18T10:51:32.443Z,25.88
2022-11-18T10:54:39.515Z,22.98
2022-11-18T10:57:23.335Z,24.08
2022-11-18T11:03:28.014Z,23.10
2022-11-18T11:06:35.461Z,22.02
2022-11-18T11:09:41.811Z,20.88
2022-11-18T11:12:49.756Z,18.58
2022-11-18T11:15:58.356Z,19.95
2022-11-18T11:18:52.871Z,17.63
2022-11-18T11:21:39.314Z,18.25
2022-11-18T11:24:30.983Z,19.60
2022-11-18T11:31:20.930Z,18.05
2022-11-18T11:34:12.974Z,18.75
2022-11-18T11:40:12.934Z,17.75
2022-11-18T11:43:25.294Z,19.20
2022-11-18T11:46:29.807Z,18.52
2022-11-18T11:52:35.024Z,18.60
2022-11-18T11:55:58.247Z,18.40
2022-11-18T11:59:07.559Z,20.67
2022-11-18T12:02:38.226Z,18.40
2022-11-18T12:09:53.621Z,18.23
2022-11-18T12:13:11.835Z,17.88
2022-11-18T12:16:40.078Z,17.70
2022-11-18T12:26:54.555Z,19.50
2022-11-18T12:30:07.537Z,18.70
2022-11-18T12:33:13.491Z,18.88
2022-11-18T12:36:25.298Z,19.63
2022-11-18T12:43:10.943Z,18.70
2022-11-18T12:46:27.431Z,20.80
2022-11-18T12:49:33.325Z,19.02
2022-11-18T12:52:39.053Z,21.88
2022-11-18T12:58:57.476Z,21.67
2022-11-18T13:01:54.015Z,20.33
2022-11-18T13:04:44.367Z,23.65
2022-11-18T13:08:10.516Z,23.90
2022-11-18T13:11:31.947Z,22.50
2022-11-18T13:14:56.367Z,22.45
2022-11-18T13:17:58.017Z,23.30
2022-11-18T13:21:30.261Z,24.08
2022-11-18T13:28:01.402Z,23.75
2022-11-18T13:31:11.420Z,24.55
2022-11-18T13:34:26.648Z,23.05
2022-11-18T13:37:56.315Z,23.00
2022-11-18T13:41:12.677Z,21.33
2022-11-18T13:44:10.432Z,24.55
2022-11-18T13:46:55.788Z,27.88
2022-11-18T13:49:58.327Z,27.52
2022-11-18T13:52:45.459Z,28.23
2022-11-18T13:55:38.608Z,28.42
2022-11-18T13:59:10.354Z,26.90
2022-11-18T14:01:44.228Z,28.85
2022-11-18T14:04:28.752Z,33.22
2022-11-18T14:07:33.104Z,31.95
2022-11-18T14:10:17.716Z,30.52
2022-11-18T14:13:11.168Z,29.85
2022-11-18T14:16:18.315Z,30.13
2022-11-18T14:18:56.309Z,32.72
2022-11-18T14:21:50.418Z,30.75
2022-11-18T14:24:38.094Z,29.90
2022-11-18T14:27:50.788Z,29.70
2022-11-18T14:30:37.296Z,28.23
2022-11-18T14:34:19.935Z,27.52
2022-11-18T14:37:22.238Z,27.77
2022-11-18T14:40:27.964Z,28.60
2022-11-18T14:43:35.608Z,28.90
2022-11-18T14:46:49.855Z,26.20
2022-11-18T14:49:55.255Z,27.02
2022-11-18T14:52:57.719Z,26.38
2022-11-18T14:55:52.385Z,27.05
2022-11-18T14:58:55.528Z,28.02
2022-11-18T15:01:53.044Z,27.13
2022-11-18T15:04:49.313Z,30.98
2022-11-18T15:07:39.476Z,29.05
2022-11-18T15:10:24.236Z,29.02
2022-11-18T15:13:11.722Z,27.33
2022-11-18T15:16:09.409Z,26.63
2022-11-18T15:18:56.585Z,29.73
2022-11-18T15:21:52.357Z,25.77
2022-11-18T15:24:34.310Z,27.80
2022-11-18T15:27:18.856Z,26.05
2022-11-18T15:30:09.049Z,27.08
2022-11-18T15:32:48.955Z,27.45
2022-11-18T15:35:32.933Z,26.92
2022-11-18T15:38:16.886Z,26.40
2022-11-18T15:40:58.218Z,26.63
2022-11-18T15:43:49.335Z,25.35
2022-11-18T15:46:36.312Z,25.95
2022-11-18T15:49:31.005Z,27.95
2022-11-18T15:52:20.008Z,26.63
2022-11-18T15:55:03.192Z,27.27
2022-11-18T15:57:47.541Z,26.90
2022-11-18T16:00:29.397Z,29.23
2022-11-18T16:03:22.311Z,28.98
2022-11-18T16:06:04.298Z,31.67
2022-11-18T16:08:59.503Z,29.73
2022-11-18T16:12:06.776Z,27.52
2022-11-18T16:15:11.304Z,26.50
2022-11-18T16:17:55.356Z,28.20
2022-11-18T16:20:59.263Z,26.92
2022-11-18T16:23:38.034Z,27.73
2022-11-18T16:26:28.308Z,26.50
2022-11-18T16:29:01.385Z,27.77
2022-11-18T16:32:00.797Z,27.27
2022-11-18T16:34:36.327Z,29.25
2022-11-18T16:37:20.306Z,27.73
2022-11-18T16:42:42.393Z,25.08
2022-11-18T16:45:26.283Z,27.25
2022-11-18T16:48:23.114Z,26.73
2022-11-18T16:51:28.135Z,26.67
2022-11-18T16:54:27.967Z,28.02
2022-11-18T16:57:11.473Z,28.02
2022-11-18T16:59:52.226Z,30.00
2022-11-18T17:02:36.483Z,35.17
2022-11-18T17:05:22.833Z,53.00
2022-11-18T17:08:11.633Z,49.42
2022-11-18T17:11:04.350Z,50.53
2022-11-18T17:13:52.058Z,37.50
2022-11-18T17:16:41.720Z,58.22
2022-11-18T17:19:35.846Z,53.90
2022-11-18T17:22:15.895Z,52.72
2022-11-18T17:25:06.367Z,48.33
2022-11-18T17:27:49.748Z,47.47
2022-11-18T17:30:43.455Z,43.05
2022-11-18T17:33:32.327Z,33.75
2022-11-18T17:36:17.304Z,35.28
2022-11-18T17:39:07.176Z,40.75
2022-11-18T17:42:01.428Z,35.08
2022-11-18T17:44:47.120Z,30.07
2022-11-18T17:47:38.363Z,30.77
2022-11-18T17:50:19.921Z,36.73
2022-11-18T17:53:05.137Z,36.85
2022-11-18T17:55:55.656Z,34.50
2022-11-18T17:58:40.687Z,32.80
2022-11-18T18:01:22.629Z,33.95
2022-11-18T18:04:06.503Z,33.97
2022-11-18T18:06:56.129Z,32.80
2022-11-18T18:09:55.393Z,36.65
2022-11-18T18:13:02.830Z,32.83
2022-11-18T18:15:52.898Z,34.38
2022-11-18T18:18:43.685Z,33.13
2022-11-18T18:21:29.519Z,35.45
2022-11-18T18:24:20.498Z,32.65
2022-11-18T18:27:06.127Z,37.97
2022-11-18T18:29:43.722Z,38.53
2022-11-18T18:32:50.902Z,37.03
2022-11-18T18:35:39.623Z,35.15
2022-11-18T18:38:28.879Z,35.63
2022-11-18T18:41:44.368Z,33.92
2022-11-18T18:44:52.009Z,36.13
2022-11-18T18:47:37.039Z,32.78
2022-11-18T18:50:28.155Z,35.10
2022-11-18T18:53:21.401Z,36.90
2022-11-18T18:56:14.327Z,37.58
2022-11-18T18:58:57.923Z,34.75
2022-11-18T19:01:41.841Z,34.67
2022-11-18T19:04:47.102Z,34.00
2022-11-18T19:07:31.378Z,34.35
2022-11-18T19:10:12.319Z,33.70
2022-11-18T19:13:00.305Z,36.15
2022-11-18T19:15:56.720Z,36.58
2022-11-18T19:18:45.310Z,35.60
2022-11-18T19:21:30.847Z,41.35
2022-11-18T19:24:42.365Z,36.40
2022-11-18T19:27:23.532Z,35.40
2022-11-18T19:30:11.361Z,38.20
2022-11-18T19:32:55.826Z,36.85
2022-11-18T19:35:37.821Z,36.05
2022-11-18T19:38:27.785Z,35.65
2022-11-18T19:41:17.639Z,37.50
2022-11-18T19:44:04.389Z,36.28
2022-11-18T19:46:49.901Z,36.83
2022-11-18T19:49:36.497Z,38.92
2022-11-18T19:52:39.014Z,37.50
2022-11-18T19:55:24.346Z,41.25
2022-11-18T19:58:16.057Z,42.53
2022-11-18T20:01:06.317Z,43.60
2022-11-18T20:03:47.467Z,43.67
2022-11-18T20:06:31.870Z,41.97
2022-11-18T20:09:25.675Z,37.53
2022-11-18T20:12:08.706Z,42.20
2022-11-18T20:15:09.951Z,40.05
2022-11-18T20:18:04.727Z,37.70
2022-11-18T20:20:59.477Z,35.17
2022-11-18T20:23:44.225Z,38.90
2022-11-18T20:26:25.317Z,35.85
2022-11-18T20:29:17.515Z,37.08
2022-11-18T20:32:00.663Z,37.40
2022-11-18T20:34:45.376Z,37.58
2022-11-18T20:37:32.015Z,39.50
2022-11-18T20:40:21.336Z,39.80
2022-11-18T20:43:14.726Z,35.35
2022-11-18T20:46:03.204Z,33.80
2022-11-18T20:48:48.455Z,29.10
2022-11-18T20:51:45.316Z,29.83
2022-11-18T20:54:29.783Z,28.42
2022-11-18T20:57:16.804Z,27.48
2022-11-18T21:00:14.267Z,25.35
2022-11-18T21:02:57.674Z,24.10
2022-11-18T21:05:41.318Z,26.60
2022-11-18T21:08:25.173Z,24.08
2022-11-18T21:11:20.211Z,20.58
2022-11-18T21:14:21.884Z,22.42
2022-11-18T21:17:12.803Z,21.67
2022-11-18T21:19:56.852Z,20.33
2022-11-18T21:22:36.284Z,20.00
2022-11-18T21:25:21.314Z,20.50
2022-11-18T21:28:11.928Z,19.42
2022-11-18T21:30:57.737Z,20.08
2022-11-18T21:33:50.594Z,19.05
2022-11-18T21:36:37.013Z,18.80
2022-11-18T21:39:30.292Z,18.20
2022-11-18T21:42:10.824Z,19.83
2022-11-18T21:44:57.735Z,18.52
2022-11-18T21:47:48.835Z,18.65
2022-11-18T21:50:35.340Z,19.48
2022-11-18T21:53:24.310Z,18.55
2022-11-18T21:56:16.858Z,19.10
2022-11-18T21:59:18.631Z,17.77
2022-11-18T22:02:02.804Z,16.60
2022-11-18T22:05:03.323Z,16.95
2022-11-18T22:07:49.301Z,15.40
2022-11-18T22:10:27.488Z,15.00
2022-11-18T22:13:14.169Z,13.48
2022-11-18T22:16:04.073Z,13.45
2022-11-18T22:19:06.688Z,13.05
2022-11-18T22:21:51.313Z,13.52
2022-11-18T22:24:37.211Z,12.80
2022-11-18T22:27:27.451Z,13.00
2022-11-18T22:30:16.350Z,13.23
2022-11-18T22:33:03.785Z,13.20
2022-11-18T22:35:57.061Z,16.05
2022-11-18T22:38:50.637Z,14.88
2022-11-18T22:41:58.181Z,17.52
2022-11-18T22:44:50.972Z,18.17
2022-11-18T22:47:39.375Z,18.17
2022-11-18T22:50:19.495Z,19.48
2022-11-18T22:53:06.033Z,18.98
2022-11-18T22:56:11.702Z,19.05
2022-11-18T22:58:58.453Z,19.77
2022-11-18T23:01:39.492Z,19.33
2022-11-18T23:04:17.455Z,19.40
2022-11-18T23:07:04.187Z,18.30
2022-11-18T23:09:48.266Z,18.30
2022-11-18T23:12:46.461Z,19.92
2022-11-18T23:15:32.591Z,22.50
2022-11-18T23:18:22.154Z,20.55
2022-11-18T23:21:12.276Z,19.88
2022-11-18T23:24:00.299Z,18.27
2022-11-18T23:26:46.109Z,20.15
2022-11-18T23:29:37.262Z,19.92
2022-11-18T23:32:16.332Z,20.08
2022-11-18T23:35:06.215Z,20.15
2022-11-18T23:37:57.929Z,21.67
2022-11-18T23:40:49.365Z,21.90
2022-11-18T23:43:31.448Z,23.05
2022-11-18T23:46:15.303Z,22.83
2022-11-18T23:48:58.919Z,21.73
2022-11-18T23:51:43.229Z,24.55
2022-11-18T23:54:27.548Z,23.77
2022-11-18T23:57:17.975Z,25.98
